createdAt,value
2022-09-27T00:01:37.622Z,98679.00
2022-09-27T00:06:40.865Z,98683.00
2022-09-27T00:11:39.584Z,98689.00
2022-09-27T00:16:39.643Z,98693.00
2022-09-27T00:21:39.660Z,98703.00
2022-09-27T00:26:39.598Z,98708.00
2022-09-27T00:31:39.719Z,98712.00
2022-09-27T00:36:39.764Z,98722.00
2022-09-27T00:41:39.854Z,98722.00
2022-09-27T00:46:39.843Z,98724.00
2022-09-27T00:51:40.068Z,98726.00
2022-09-27T00:56:39.714Z,98726.00
2022-09-27T01:01:39.970Z,98724.00
2022-09-27T01:06:39.692Z,98720.00
2022-09-27T01:11:39.581Z,98722.00
2022-09-27T01:16:39.671Z,98724.00
2022-09-27T01:21:40.599Z,98728.00
2022-09-27T01:26:40.610Z,98732.00
2022-09-27T01:31:41.316Z,98742.00
2022-09-27T01:36:41.734Z,98746.00
2022-09-27T01:41:46.571Z,98746.00
2022-09-27T01:46:48.634Z,98750.00
2022-09-27T01:51:48.795Z,98746.00
2022-09-27T01:56:53.548Z,98748.00
2022-09-27T02:01:54.235Z,98748.00
2022-09-27T02:06:59.653Z,98752.00
2022-09-27T02:12:01.715Z,98752.00
2022-09-27T02:17:01.732Z,98756.00
2022-09-27T02:22:01.730Z,98762.00
2022-09-27T02:27:02.773Z,98766.00
2022-09-27T02:32:03.015Z,98766.00
2022-09-27T02:37:02.946Z,98770.00
2022-09-27T02:42:03.090Z,98774.00
2022-09-27T02:47:03.807Z,98776.00
2022-09-27T02:52:03.760Z,98781.00
2022-09-27T02:57:22.555Z,98781.00
2022-09-27T03:02:30.680Z,98783.00
2022-09-27T03:07:30.732Z,98783.00
2022-09-27T03:12:30.789Z,98785.00
2022-09-27T03:17:35.526Z,98791.00
2022-09-27T03:22:35.803Z,98791.00
2022-09-27T03:27:35.799Z,98795.00
2022-09-27T03:32:54.476Z,98801.00
2022-09-27T03:37:54.791Z,98803.00
2022-09-27T03:42:54.936Z,98809.00
2022-09-27T03:47:54.787Z,98813.00
2022-09-27T03:52:55.172Z,98817.00
2022-09-27T03:57:54.733Z,98815.00
2022-09-27T04:02:56.649Z,98823.00
2022-09-27T04:07:56.842Z,98823.00
2022-09-27T04:12:58.777Z,98828.00
2022-09-27T04:18:09.637Z,98830.00
2022-09-27T04:23:11.544Z,98828.00
2022-09-27T04:28:12.546Z,98836.00
2022-09-27T04:33:31.203Z,98834.00
2022-09-27T04:38:30.855Z,98844.00
2022-09-27T04:43:30.987Z,98846.00
2022-09-27T04:48:31.125Z,98848.00
2022-09-27T04:53:31.482Z,98848.00
2022-09-27T04:58:33.318Z,98854.00
2022-09-27T05:03:34.663Z,98866.00
2022-09-27T05:08:45.818Z,98866.00
2022-09-27T05:13:45.840Z,98868.00
2022-09-27T05:19:02.993Z,98874.00
2022-09-27T05:24:02.810Z,98879.00
2022-09-27T05:29:02.785Z,98881.00
2022-09-27T05:34:04.659Z,98891.00
2022-09-27T05:39:05.971Z,98895.00
2022-09-27T05:44:06.401Z,98899.00
2022-09-27T05:49:06.777Z,98901.00
2022-09-27T05:54:07.043Z,98911.00
2022-09-27T05:59:08.691Z,98915.00
2022-09-27T06:04:28.801Z,98919.00
2022-09-27T06:09:29.861Z,98923.00
2022-09-27T06:14:31.692Z,98919.00
2022-09-27T06:19:31.980Z,98921.00
2022-09-27T06:24:33.758Z,98921.00
2022-09-27T06:29:36.688Z,98921.00
2022-09-27T06:34:37.811Z,98921.00
2022-09-27T06:39:48.900Z,98925.00
2022-09-27T06:45:08.152Z,98928.00
2022-09-27T06:50:08.554Z,98930.00
2022-09-27T06:55:09.447Z,98934.00
2022-09-27T07:00:44.638Z,98944.00
2022-09-27T07:05:46.789Z,98952.00
2022-09-27T07:10:47.098Z,98954.00
2022-09-27T07:15:48.812Z,98960.00
2022-09-27T07:20:49.723Z,98971.00
2022-09-27T07:25:51.646Z,98977.00
2022-09-27T07:30:52.099Z,98983.00
2022-09-27T07:35:52.028Z,98985.00
2022-09-27T07:40:52.012Z,98985.00
2022-09-27T07:46:09.142Z,98987.00
2022-09-27T07:51:24.166Z,98999.00
2022-09-27T07:56:24.123Z,99001.00
2022-09-27T08:01:24.248Z,99009.00
2022-09-27T08:06:25.859Z,99011.00
2022-09-27T08:11:27.552Z,99017.00
2022-09-27T08:16:48.259Z,99023.00
2022-09-27T08:21:58.063Z,99027.00
2022-09-27T08:26:56.866Z,99035.00
2022-09-27T08:31:57.083Z,99035.00
2022-09-27T08:36:58.305Z,99039.00
2022-09-27T08:41:58.459Z,99043.00
2022-09-27T08:46:59.000Z,99041.00
2022-09-27T08:51:59.003Z,99041.00
2022-09-27T08:57:00.241Z,99045.00
2022-09-27T09:02:01.944Z,99045.00
2022-09-27T09:07:03.475Z,99050.00
2022-09-27T09:12:22.065Z,99050.00
2022-09-27T09:17:23.807Z,99050.00
2022-09-27T09:22:26.455Z,99046.00
2022-09-27T09:27:26.270Z,99045.00
2022-09-27T09:32:25.929Z,99041.00
2022-09-27T09:37:28.245Z,99041.00
2022-09-27T09:42:29.330Z,99035.00
2022-09-27T09:47:29.762Z,99035.00
2022-09-27T09:52:30.212Z,99031.00
2022-09-27T09:57:30.441Z,99031.00
2022-09-27T10:02:31.993Z,99027.00
2022-09-27T10:07:32.582Z,99019.00
2022-09-27T10:12:33.758Z,99021.00
2022-09-27T10:17:35.012Z,99015.00
2022-09-27T10:22:38.103Z,99011.00
2022-09-27T10:27:40.010Z,99007.00
2022-09-27T10:32:44.854Z,99003.00
2022-09-27T10:37:47.039Z,99003.00
2022-09-27T10:42:47.294Z,99003.00
2022-09-27T10:47:54.841Z,99003.00
2022-09-27T10:52:55.065Z,99005.00
2022-09-27T10:57:55.333Z,99003.00
2022-09-27T11:02:55.585Z,98999.00
2022-09-27T11:07:56.951Z,98987.00
2022-09-27T11:12:58.905Z,98985.00
2022-09-27T11:17:59.889Z,98983.00
2022-09-27T11:23:01.569Z,98987.00
2022-09-27T11:28:02.943Z,98987.00
2022-09-27T11:33:03.414Z,98989.00
2022-09-27T11:38:03.072Z,98981.00
2022-09-27T11:43:03.691Z,98979.00
2022-09-27T11:48:04.683Z,98977.00
2022-09-27T11:53:05.214Z,98971.00
2022-09-27T11:58:05.830Z,98966.00
2022-09-27T12:03:06.610Z,98969.00
2022-09-27T12:08:07.356Z,98968.00
2022-09-27T12:13:07.480Z,98964.00
2022-09-27T12:18:07.390Z,98956.00
2022-09-27T12:23:12.011Z,98950.00
2022-09-27T12:28:12.250Z,98948.00
2022-09-27T12:33:12.335Z,98948.00
2022-09-27T12:38:12.102Z,98946.00
2022-09-27T12:43:29.387Z,98946.00
2022-09-27T12:48:29.165Z,98952.00
2022-09-27T12:53:29.896Z,98954.00
2022-09-27T12:58:30.248Z,98958.00
2022-09-27T13:03:32.057Z,98962.00
2022-09-27T13:08:32.980Z,98968.00
2022-09-27T13:13:36.542Z,98968.00
2022-09-27T13:18:35.830Z,98971.00
2022-09-27T13:23:36.457Z,98971.00
2022-09-27T13:28:39.624Z,98971.00
2022-09-27T13:33:39.190Z,98971.00
2022-09-27T13:38:39.772Z,98971.00
2022-09-27T13:43:43.363Z,98968.00
2022-09-27T13:48:47.518Z,98973.00
2022-09-27T13:53:47.318Z,98969.00
2022-09-27T13:58:49.112Z,98962.00
2022-09-27T14:03:49.582Z,98956.00
2022-09-27T14:08:49.777Z,98960.00
2022-09-27T14:13:50.420Z,98962.00
2022-09-27T14:18:54.387Z,98964.00
2022-09-27T14:23:54.153Z,98966.00
2022-09-27T14:29:05.179Z,98964.00
2022-09-27T14:34:05.317Z,98960.00
2022-09-27T14:39:07.133Z,98960.00
2022-09-27T14:44:07.257Z,98964.00
2022-09-27T14:49:07.300Z,98971.00
2022-09-27T14:54:09.088Z,98975.00
2022-09-27T14:59:09.431Z,98979.00
2022-09-27T15:04:10.519Z,98985.00
2022-09-27T15:09:12.105Z,98985.00
2022-09-27T15:14:12.289Z,98987.00
2022-09-27T15:19:12.240Z,98987.00
2022-09-27T15:24:12.532Z,98991.00
2022-09-27T15:29:12.343Z,98999.00
2022-09-27T15:34:12.408Z,98991.00
2022-09-27T15:39:12.289Z,98987.00
2022-09-27T15:44:12.198Z,98987.00
2022-09-27T15:49:12.302Z,98985.00
2022-09-27T15:54:12.413Z,98981.00
2022-09-27T15:59:12.387Z,98979.00
2022-09-27T16:04:12.349Z,98977.00
2022-09-27T16:09:12.290Z,98977.00
2022-09-27T16:14:14.631Z,98977.00
2022-09-27T16:19:14.413Z,98979.00
2022-09-27T16:24:14.237Z,98979.00
2022-09-27T16:29:14.611Z,98977.00
2022-09-27T16:34:14.306Z,98975.00
2022-09-27T16:39:14.376Z,98977.00
2022-09-27T16:44:16.204Z,98977.00
2022-09-27T16:49:34.754Z,98971.00
2022-09-27T16:54:34.313Z,98969.00
2022-09-27T16:59:34.387Z,98966.00
2022-09-27T17:04:34.247Z,98966.00
2022-09-27T17:09:34.320Z,98962.00
2022-09-27T17:14:34.313Z,98960.00
2022-09-27T17:19:34.331Z,98962.00
2022-09-27T17:24:34.263Z,98956.00
2022-09-27T17:29:34.381Z,98952.00
2022-09-27T17:34:34.337Z,98946.00
2022-09-27T17:39:34.388Z,98938.00
2022-09-27T17:44:34.323Z,98934.00
2022-09-27T17:49:52.643Z,98932.00
2022-09-27T17:54:54.851Z,98930.00
2022-09-27T17:59:54.311Z,98932.00
2022-09-27T18:04:54.347Z,98934.00
2022-09-27T18:09:54.358Z,98934.00
2022-09-27T18:14:56.188Z,98932.00
2022-09-27T18:19:57.351Z,98930.00
2022-09-27T18:24:57.386Z,98928.00
2022-09-27T18:29:59.372Z,98923.00
2022-09-27T18:34:59.360Z,98917.00
2022-09-27T18:39:59.385Z,98921.00
2022-09-27T18:44:59.294Z,98915.00
2022-09-27T18:49:59.534Z,98913.00
2022-09-27T18:54:59.484Z,98913.00
2022-09-27T19:00:03.506Z,98911.00
2022-09-27T19:05:03.445Z,98903.00
2022-09-27T19:10:04.596Z,98899.00
2022-09-27T19:15:04.711Z,98887.00
2022-09-27T19:20:06.275Z,98875.00
2022-09-27T19:25:06.434Z,98870.00
2022-09-27T19:30:06.514Z,98864.00
2022-09-27T19:35:06.448Z,98860.00
2022-09-27T19:40:06.357Z,98858.00
2022-09-27T19:45:10.772Z,98854.00
2022-09-27T19:50:08.338Z,98848.00
2022-09-27T19:55:08.433Z,98846.00
2022-09-27T20:00:08.367Z,98842.00
2022-09-27T20:05:08.379Z,98836.00
2022-09-27T20:10:08.493Z,98836.00
2022-09-27T20:15:08.350Z,98832.00
2022-09-27T20:20:08.614Z,98823.00
2022-09-27T20:25:08.632Z,98817.00
2022-09-27T20:30:08.518Z,98811.00
2022-09-27T20:35:10.294Z,98807.00
2022-09-27T20:40:10.770Z,98803.00
2022-09-27T20:45:10.571Z,98809.00
2022-09-27T20:50:10.439Z,98823.00
2022-09-27T20:55:11.378Z,98827.00
2022-09-27T21:00:11.478Z,98830.00
2022-09-27T21:05:11.727Z,98825.00
2022-09-27T21:10:11.367Z,98819.00
2022-09-27T21:15:11.443Z,98813.00
2022-09-27T21:20:11.407Z,98811.00
2022-09-27T21:25:11.421Z,98811.00
2022-09-27T21:30:11.471Z,98803.00
2022-09-27T21:35:11.383Z,98797.00
2022-09-27T21:40:11.715Z,98789.00
2022-09-27T21:45:11.698Z,98783.00
2022-09-27T21:50:11.484Z,98781.00
2022-09-27T21:55:11.414Z,98774.00
2022-09-27T22:00:11.540Z,98768.00
2022-09-27T22:05:11.475Z,98760.00
2022-09-27T22:10:11.926Z,98754.00
2022-09-27T22:15:11.925Z,98746.00
2022-09-27T22:20:11.494Z,98744.00
2022-09-27T22:25:11.460Z,98732.00
2022-09-27T22:30:11.455Z,98728.00
2022-09-27T22:35:11.504Z,98728.00
2022-09-27T22:40:11.537Z,98728.00
2022-09-27T22:45:11.478Z,98724.00
2022-09-27T22:50:11.519Z,98722.00
2022-09-27T22:55:11.543Z,98716.00
2022-09-27T23:00:11.514Z,98714.00
2022-09-27T23:05:11.513Z,98710.00
2022-09-27T23:10:12.434Z,98705.00
2022-09-27T23:15:13.464Z,98705.00
2022-09-27T23:20:13.778Z,98703.00
2022-09-27T23:25:13.494Z,98701.00
2022-09-27T23:30:13.687Z,98703.00
2022-09-27T23:35:13.578Z,98705.00
2022-09-27T23:40:13.496Z,98712.00
2022-09-27T23:45:15.369Z,98710.00
2022-09-27T23:50:15.528Z,98710.00
2022-09-27T23:55:15.542Z,98705.00
